Time;durP1;ratioP1;P1;durP2;ratioP2;P2;SDS_P1;SDS_P2;PMS_P1;PMS_P2;Temp;Humidity;BMP_temperature;BMP_pressure;BME280_temperature;BME280_humidity;BME280_pressure;Samples;Min_cycle;Max_cycle;Signal;HPM_P1;HPM_P2
2021/12/03 00:01:43;;;;;;;9.07;5.15;;;;;;;3.82;100.00;98295.13;4448599;32;34122;-78
2021/12/03 00:04:30;;;;;;;9.57;4.90;;;;;;;3.80;100.00;98294.63;4448071;32;35476;-78
2021/12/03 00:07:16;;;;;;;8.43;4.68;;;;;;;3.94;100.00;98294.63;4446234;32;34989;-77
2021/12/03 00:10:05;;;;;;;8.27;4.50;;;;;;;3.90;100.00;98294.44;4449184;32;33465;-78
2021/12/03 00:12:53;;;;;;;7.32;3.47;;;;;;;3.72;100.00;98292.59;4448246;32;34183;-79
2021/12/03 00:15:40;;;;;;;6.87;3.35;;;;;;;4.05;99.73;98285.22;4425708;32;37383;-79
2021/12/03 00:18:27;;;;;;;5.87;3.37;;;;;;;3.59;100.00;98289.56;4437402;32;35978;-78
2021/12/03 00:21:13;;;;;;;7.70;4.18;;;;;;;3.62;99.25;98288.19;4447792;32;34222;-79
2021/12/03 00:24:00;;;;;;;6.45;3.47;;;;;;;3.59;100.00;98300.41;4448677;32;34014;-78
2021/12/03 00:26:46;;;;;;;5.43;3.28;;;;;;;3.73;99.70;98302.31;4447431;32;34679;-79
2021/12/03 00:29:33;;;;;;;6.10;3.05;;;;;;;3.53;100.00;98312.44;4451680;32;35915;-78
2021/12/03 00:32:19;;;;;;;7.43;3.30;;;;;;;4.08;98.20;98303.56;4452374;32;35330;-79
2021/12/03 00:35:07;;;;;;;5.37;3.60;;;;;;;3.66;99.92;98318.97;4452433;32;34313;-78
2021/12/03 00:37:53;;;;;;;8.65;3.70;;;;;;;3.80;98.58;98327.94;4452974;32;35212;-79
2021/12/03 00:40:39;;;;;;;6.05;3.00;;;;;;;3.68;98.96;98329.53;4452940;32;33622;-78
2021/12/03 00:43:26;;;;;;;6.00;2.80;;;;;;;3.74;98.76;98322.91;4453792;32;35569;-79
2021/12/03 00:46:16;;;;;;;6.12;2.60;;;;;;;3.80;97.91;98327.94;4452860;32;34127;-79
2021/12/03 00:49:02;;;;;;;4.93;2.50;;;;;;;4.03;96.50;98338.91;4453856;32;34585;-78
2021/12/03 00:51:49;;;;;;;6.50;3.22;;;;;;;3.82;98.10;98346.59;4452552;32;34953;-79
2021/12/03 00:54:36;;;;;;;7.47;3.00;;;;;;;3.99;97.54;98349.53;4453538;32;35434;-79
2021/12/03 00:57:22;;;;;;;6.55;3.33;;;;;;;4.69;94.89;98353.84;4452185;32;34161;-78
2021/12/03 01:00:23;;;;;;;6.87;3.45;;;;;;;4.95;92.41;98343.28;4452629;32;34599;-79
2021/12/03 01:03:09;;;;;;;8.07;3.47;;;;;;;5.24;90.96;98342.09;4453520;32;36507;-79
2021/12/03 01:05:55;;;;;;;6.03;3.03;;;;;;;4.21;95.87;98353.47;4451806;32;35280;-79
2021/12/03 01:08:42;;;;;;;5.87;3.22;;;;;;;4.11;96.94;98365.31;4453322;32;34041;-79
2021/12/03 01:11:29;;;;;;;6.65;3.33;;;;;;;3.79;98.25;98358.84;4453470;32;34620;-79
2021/12/03 01:14:16;;;;;;;6.68;3.60;;;;;;;4.36;97.53;98355.91;4452467;32;36036;-79
2021/12/03 01:17:04;;;;;;;6.90;3.50;;;;;;;3.97;98.22;98356.38;4451326;32;34188;-79
2021/12/03 01:19:50;;;;;;;6.03;3.17;;;;;;;3.77;99.02;98361.03;4452178;32;34175;-79
2021/12/03 01:22:38;;;;;;;6.78;3.55;;;;;;;3.79;98.62;98369.69;4451788;32;33474;-78
2021/12/03 01:25:24;;;;;;;6.50;3.45;;;;;;;3.74;98.44;98371.66;4451878;32;34952;-78
2021/12/03 01:28:12;;;;;;;8.68;4.05;;;;;;;4.04;95.45;98367.59;4452110;32;34743;-78
2021/12/03 01:30:59;;;;;;;6.53;3.85;;;;;;;3.72;98.99;98373.88;4449850;32;34174;-79
2021/12/03 01:33:46;;;;;;;8.50;4.00;;;;;;;4.34;96.21;98363.53;4452722;32;34319;-79
2021/12/03 01:36:32;;;;;;;9.10;3.75;;;;;;;3.91;97.25;98360.28;4453017;32;35056;-79
2021/12/03 01:39:19;;;;;;;6.65;3.95;;;;;;;3.86;96.99;98369.28;4452175;32;34298;-79
2021/12/03 01:42:06;;;;;;;7.55;3.97;;;;;;;4.01;96.39;98379.88;4447720;32;35052;-79
2021/12/03 01:44:52;;;;;;;6.47;3.47;;;;;;;3.99;95.59;98384.78;4450139;32;34986;-79
2021/12/03 01:47:41;;;;;;;9.45;4.30;;;;;;;4.61;93.33;98389.03;4450967;32;35021;-79
2021/12/03 01:50:38;;;;;;;8.88;4.68;;;;;;;4.91;91.43;98393.84;4450475;32;36170;-79
2021/12/03 01:53:26;;;;;;;7.40;4.22;;;;;;;5.66;87.94;98394.31;4438250;32;34481;-79
2021/12/03 01:56:15;;;;;;;7.85;4.05;;;;;;;5.39;89.13;98400.66;4450996;32;34357;-78
2021/12/03 01:59:02;;;;;;;7.45;4.07;;;;;;;5.46;88.33;98392.87;4450368;32;34992;-79
2021/12/03 02:01:49;;;;;;;7.12;4.07;;;;;;;5.30;88.51;98387.00;4449087;32;34253;-78
2021/12/03 02:04:36;;;;;;;9.02;4.68;;;;;;;5.06;90.15;98402.75;4451959;32;33948;-78
2021/12/03 02:07:23;;;;;;;9.38;4.65;;;;;;;3.92;95.14;98400.59;4449701;32;34634;-79
2021/12/03 02:10:09;;;;;;;8.80;5.15;;;;;;;4.08;95.82;98403.06;4448974;32;35700;-79
2021/12/03 02:12:56;;;;;;;8.88;5.10;;;;;;;4.01;96.27;98409.69;4451557;32;34877;-79
2021/12/03 02:15:46;;;;;;;10.55;5.47;;;;;;;3.88;97.11;98402.31;4449764;32;35152;-78
2021/12/03 02:18:32;;;;;;;10.23;6.07;;;;;;;3.97;96.75;98395.09;4449916;32;34436;-77
2021/12/03 02:21:19;;;;;;;12.82;6.45;;;;;;;3.71;97.66;98400.16;4449264;32;33783;-78
2021/12/03 02:24:05;;;;;;;12.93;7.32;;;;;;;3.33;100.00;98412.91;4448664;32;34823;-77
2021/12/03 02:26:52;;;;;;;12.32;6.85;;;;;;;3.31;100.00;98425.97;4451513;32;36532;-78
2021/12/03 02:29:41;;;;;;;12.13;6.95;;;;;;;3.32;100.00;98422.16;4450959;32;34593;-77
2021/12/03 02:32:27;;;;;;;12.18;6.62;;;;;;;3.42;100.00;98427.44;4451897;32;35042;-78
2021/12/03 02:35:14;;;;;;;11.12;6.68;;;;;;;3.51;100.00;98428.38;4449811;32;33369;-77
2021/12/03 02:38:00;;;;;;;11.65;7.03;;;;;;;3.57;99.76;98442.62;4450322;32;33148;-78
2021/12/03 02:40:48;;;;;;;13.60;7.87;;;;;;;3.68;99.34;98444.09;4451430;32;34568;-78
2021/12/03 02:43:35;;;;;;;12.52;7.82;;;;;;;3.29;100.00;98453.31;4450805;32;35913;-78
2021/12/03 02:46:22;;;;;;;12.30;7.10;;;;;;;3.34;100.00;98460.56;4451746;32;36714;-76
2021/12/03 02:49:13;;;;;;;13.35;7.37;;;;;;;3.56;99.81;98458.09;4451877;32;33881;-77
2021/12/03 02:52:00;;;;;;;13.98;9.02;;;;;;;3.41;100.00;98465.62;4450268;32;34576;-76
2021/12/03 02:54:46;;;;;;;12.52;7.90;;;;;;;3.15;100.00;98474.88;4449147;32;34964;-77
2021/12/03 02:57:33;;;;;;;14.35;8.73;;;;;;;3.35;100.00;98479.22;4449880;32;35346;-76
2021/12/03 03:00:24;;;;;;;15.98;9.43;;;;;;;3.38;100.00;98484.06;4450688;32;34306;-77
2021/12/03 03:03:10;;;;;;;14.90;9.55;;;;;;;3.20;100.00;98487.56;4449240;32;35590;-77
2021/12/03 03:05:59;;;;;;;14.85;9.23;;;;;;;3.31;100.00;98488.22;4449973;32;35180;-77
2021/12/03 03:08:47;;;;;;;16.87;9.55;;;;;;;3.34;100.00;98506.59;4450568;32;34601;-77
2021/12/03 03:11:34;;;;;;;15.57;9.15;;;;;;;3.42;100.00;98505.97;4451109;32;34211;-77
2021/12/03 03:14:20;;;;;;;21.05;11.23;;;;;;;3.47;100.00;98515.91;4450019;32;34614;-76
2021/12/03 03:17:09;;;;;;;18.08;11.15;;;;;;;3.45;100.00;98515.41;4450793;32;35023;-76
2021/12/03 03:19:57;;;;;;;22.90;12.75;;;;;;;3.32;100.00;98522.31;4449840;32;34799;-77
2021/12/03 03:22:44;;;;;;;19.02;12.20;;;;;;;3.65;100.00;98525.16;4449772;32;35328;-76
2021/12/03 03:25:30;;;;;;;21.48;12.45;;;;;;;3.98;100.00;98518.66;4450030;32;35614;-76
2021/12/03 03:28:18;;;;;;;22.45;13.70;;;;;;;4.01;99.68;98525.41;4448810;32;34930;-76
2021/12/03 03:31:06;;;;;;;24.92;14.38;;;;;;;4.10;98.76;98533.66;4449703;32;34581;-76
2021/12/03 03:33:52;;;;;;;24.23;14.93;;;;;;;3.60;100.00;98539.56;4450244;32;33232;-77
2021/12/03 03:36:42;;;;;;;27.62;15.10;;;;;;;3.86;100.00;98545.41;4450522;32;34701;-77
2021/12/03 03:39:29;;;;;;;25.60;14.68;;;;;;;3.88;100.00;98551.34;4439088;32;34951;-76
2021/12/03 03:42:15;;;;;;;26.85;16.08;;;;;;;4.02;100.00;98554.94;4449894;32;34609;-77
2021/12/03 03:45:07;;;;;;;25.67;15.88;;;;;;;3.78;100.00;98567.75;4449735;32;34782;-76
2021/12/03 03:47:54;;;;;;;27.48;15.85;;;;;;;3.99;99.89;98571.78;4449458;32;34597;-76
2021/12/03 03:50:41;;;;;;;27.23;17.55;;;;;;;3.99;99.39;98579.94;4449632;32;34956;-76
2021/12/03 03:53:27;;;;;;;29.45;16.45;;;;;;;3.69;100.00;98580.34;4449666;32;35608;-77
2021/12/03 03:56:13;;;;;;;31.40;18.10;;;;;;;3.79;100.00;98572.09;4449647;32;33956;-77
2021/12/03 03:59:00;;;;;;;30.55;18.30;;;;;;;3.71;100.00;98583.56;4448743;32;34655;-77
2021/12/03 04:01:48;;;;;;;32.22;19.62;;;;;;;3.59;100.00;98578.59;4449382;32;34964;-76
2021/12/03 04:04:36;;;;;;;35.53;18.23;;;;;;;3.69;100.00;98586.56;4450017;32;35170;-78
2021/12/03 04:07:22;;;;;;;31.23;18.42;;;;;;;3.82;99.73;98585.06;4439047;32;34189;-76
2021/12/03 04:10:10;;;;;;;31.15;18.70;;;;;;;3.64;100.00;98583.13;4449675;32;34690;-76
2021/12/03 04:12:56;;;;;;;28.50;17.45;;;;;;;3.26;100.00;98578.44;4436630;32;35840;-77
2021/12/03 04:15:42;;;;;;;29.92;17.67;;;;;;;3.64;100.00;98594.75;4448801;32;34869;-77
2021/12/03 04:18:29;;;;;;;31.08;19.33;;;;;;;3.46;100.00;98604.47;4450303;32;34280;-76
2021/12/03 04:21:16;;;;;;;30.65;18.95;;;;;;;3.32;100.00;98615.19;4447753;32;35268;-76
2021/12/03 04:24:02;;;;;;;30.42;18.83;;;;;;;3.43;100.00;98626.72;4449318;32;34966;-77
2021/12/03 04:26:49;;;;;;;30.52;18.10;;;;;;;3.38;100.00;98626.75;4447740;32;34622;-77
2021/12/03 04:29:36;;;;;;;29.85;17.02;;;;;;;3.34;100.00;98629.25;4447442;32;34304;-77
2021/12/03 04:32:25;;;;;;;27.48;16.83;;;;;;;3.70;99.42;98636.13;4449158;32;34657;-76
2021/12/03 04:35:11;;;;;;;30.27;17.83;;;;;;;3.49;100.00;98641.78;4448126;32;35967;-76
2021/12/03 04:37:58;;;;;;;27.75;17.67;;;;;;;3.28;100.00;98659.37;4448403;32;35095;-77
2021/12/03 04:40:44;;;;;;;29.95;17.52;;;;;;;3.15;100.00;98653.53;4447172;32;34187;-77
2021/12/03 04:43:31;;;;;;;32.17;19.65;;;;;;;3.02;100.00;98670.47;4448118;32;36128;-77
2021/12/03 04:46:19;;;;;;;29.65;18.50;;;;;;;3.09;100.00;98662.00;4448782;32;34909;-78
2021/12/03 04:49:06;;;;;;;33.83;18.90;;;;;;;3.38;99.80;98678.22;4449648;32;35547;-76
2021/12/03 04:51:54;;;;;;;33.40;18.85;;;;;;;3.31;100.00;98675.84;4447764;32;34166;-79
2021/12/03 04:54:42;;;;;;;35.97;21.42;;;;;;;3.36;99.13;98692.03;4447830;32;34644;-79
2021/12/03 04:57:29;;;;;;;32.30;20.45;;;;;;;2.95;100.00;98697.03;4449386;32;37340;-77
2021/12/03 05:00:18;;;;;;;32.55;20.37;;;;;;;3.25;99.97;98703.28;4447646;32;34674;-77
2021/12/03 05:03:04;;;;;;;31.55;19.62;;;;;;;3.03;100.00;98712.66;4449546;32;35311;-75
2021/12/03 05:05:57;;;;;;;33.88;19.20;;;;;;;3.06;100.00;98714.78;4448083;32;34641;-77
2021/12/03 05:08:43;;;;;;;32.00;18.40;;;;;;;3.09;100.00;98708.81;4438473;32;35883;-76
2021/12/03 05:11:29;;;;;;;31.87;19.05;;;;;;;3.11;99.91;98717.47;4447128;32;35353;-78
2021/12/03 05:14:16;;;;;;;30.62;19.30;;;;;;;3.37;98.24;98717.22;4448991;32;34992;-77
2021/12/03 05:17:02;;;;;;;33.70;19.50;;;;;;;3.01;99.12;98720.25;4448969;32;34216;-76
2021/12/03 05:19:49;;;;;;;32.08;20.23;;;;;;;2.77;100.00;98733.69;4449845;32;34803;-77
2021/12/03 05:22:35;;;;;;;32.85;19.02;;;;;;;2.98;98.61;98756.00;4451593;32;34693;-77
2021/12/03 05:25:21;;;;;;;30.37;18.73;;;;;;;2.78;98.61;98759.66;4450847;32;34848;-76
2021/12/03 05:28:10;;;;;;;31.40;18.12;;;;;;;2.65;100.00;98763.81;4450645;32;34044;-77
2021/12/03 05:30:56;;;;;;;32.53;18.98;;;;;;;2.74;99.50;98765.91;4448519;32;35020;-75
2021/12/03 05:33:43;;;;;;;30.90;17.60;;;;;;;2.98;98.71;98772.22;4450126;32;34620;-75
2021/12/03 05:36:29;;;;;;;28.65;17.10;;;;;;;3.22;96.31;98774.22;4450196;32;35203;-77
2021/12/03 05:39:16;;;;;;;27.62;16.45;;;;;;;2.64;98.28;98788.41;4449730;32;35573;-76
2021/12/03 05:42:03;;;;;;;29.70;15.43;;;;;;;2.56;98.06;98797.13;4449109;32;36014;-75
2021/12/03 05:44:50;;;;;;;25.75;15.05;;;;;;;2.92;95.58;98805.81;4448005;32;34692;-75
2021/12/03 05:47:37;;;;;;;25.95;14.85;;;;;;;2.66;96.61;98819.50;4448807;32;35113;-77
2021/12/03 05:50:24;;;;;;;24.42;12.85;;;;;;;2.62;94.17;98826.56;4448669;32;34561;-74
2021/12/03 05:53:10;;;;;;;22.02;13.02;;;;;;;2.87;91.89;98841.03;4447757;32;35794;-77
2021/12/03 05:55:57;;;;;;;23.08;12.55;;;;;;;2.56;92.29;98843.91;4448199;32;36065;-75
2021/12/03 05:58:44;;;;;;;19.98;10.73;;;;;;;2.67;90.07;98860.88;4448179;32;33844;-76
2021/12/03 06:01:30;;;;;;;18.52;10.95;;;;;;;2.67;89.70;98863.59;4449827;32;35624;-75
2021/12/03 06:04:17;;;;;;;22.13;10.98;;;;;;;2.77;89.78;98862.75;4450101;32;34955;-74
2021/12/03 06:07:04;;;;;;;21.23;11.02;;;;;;;3.04;86.95;98881.25;4449081;32;34735;-74
2021/12/03 06:09:50;;;;;;;18.33;9.77;;;;;;;2.99;86.78;98879.41;4438344;32;34425;-74
2021/12/03 06:12:37;;;;;;;15.98;9.07;;;;;;;3.03;84.47;98880.44;4448485;32;34552;-74
2021/12/03 06:15:23;;;;;;;17.73;9.63;;;;;;;2.86;86.47;98886.22;4448945;32;34728;-74
2021/12/03 06:18:10;;;;;;;16.60;8.90;;;;;;;2.97;84.40;98887.00;4449877;32;34483;-74
2021/12/03 06:20:56;;;;;;;16.27;8.63;;;;;;;2.58;83.87;98893.13;4446514;32;35196;-73
2021/12/03 06:23:43;;;;;;;19.30;8.90;;;;;;;2.45;86.53;98902.63;4444824;32;34491;-72
2021/12/03 06:26:30;;;;;;;16.12;8.30;;;;;;;2.43;87.84;98912.09;4446754;32;35327;-73
2021/12/03 06:29:16;;;;;;;15.32;7.57;;;;;;;2.85;84.43;98910.87;4449310;32;35573;-71
2021/12/03 06:32:03;;;;;;;15.35;7.40;;;;;;;2.78;83.46;98927.37;4447978;32;33746;-73
2021/12/03 06:34:50;;;;;;;16.27;7.68;;;;;;;2.42;85.41;98937.50;4444379;32;34214;-72
2021/12/03 06:37:36;;;;;;;12.32;6.68;;;;;;;2.28;85.32;98939.16;4445794;32;34991;-72
2021/12/03 06:40:25;;;;;;;15.07;7.40;;;;;;;2.54;83.39;98951.56;4425166;32;34214;-72
2021/12/03 06:43:12;;;;;;;14.50;6.30;;;;;;;2.37;85.38;98968.09;4445049;32;34782;-73
2021/12/03 06:45:59;;;;;;;11.70;6.25;;;;;;;2.30;84.19;98978.34;4447291;32;34575;-72
2021/12/03 06:48:45;;;;;;;14.10;6.47;;;;;;;2.08;85.42;98978.66;4449456;32;34617;-71
2021/12/03 06:51:32;;;;;;;13.95;6.57;;;;;;;2.30;84.10;98991.06;4445467;32;35192;-73
2021/12/03 06:54:28;;;;;;;13.38;6.15;;;;;;;2.30;83.77;98988.37;4447854;32;34164;-72
2021/12/03 06:57:14;;;;;;;11.32;6.18;;;;;;;2.38;83.02;98993.22;4449514;32;35430;-72
2021/12/03 07:00:03;;;;;;;15.45;7.07;;;;;;;1.88;84.71;99001.09;4447735;32;34979;-70
2021/12/03 07:02:49;;;;;;;16.87;6.03;;;;;;;1.73;84.81;99004.56;4446719;32;34834;-70
2021/12/03 07:05:36;;;;;;;14.38;6.28;;;;;;;2.31;82.82;99019.75;4447285;32;34320;-71
2021/12/03 07:08:23;;;;;;;12.18;4.97;;;;;;;2.31;82.84;99025.16;4446733;32;34565;-71
2021/12/03 07:11:10;;;;;;;14.23;4.95;;;;;;;2.19;81.66;99028.09;4448065;32;35602;-71
2021/12/03 07:13:56;;;;;;;10.32;3.78;;;;;;;1.78;82.47;99036.19;4447407;32;35334;-71
2021/12/03 07:16:44;;;;;;;11.93;4.40;;;;;;;1.60;82.69;99039.41;4449155;32;33802;-70
2021/12/03 07:19:30;;;;;;;11.65;5.30;;;;;;;2.26;79.95;99042.16;4437869;32;35091;-71
2021/12/03 07:22:16;;;;;;;10.98;3.87;;;;;;;2.25;81.88;99041.37;4447114;32;35811;-72
2021/12/03 07:25:04;;;;;;;9.68;3.80;;;;;;;2.42;77.94;99056.47;4448348;32;34335;-71
2021/12/03 07:27:50;;;;;;;13.35;4.37;;;;;;;2.48;78.07;99058.91;4437189;32;34049;-70
2021/12/03 07:30:36;;;;;;;9.32;4.03;;;;;;;2.30;78.38;99069.47;4448934;32;34290;-71
2021/12/03 07:33:23;;;;;;;9.85;3.75;;;;;;;2.27;78.55;99083.53;4448490;32;35988;-70
2021/12/03 07:36:10;;;;;;;10.05;4.80;;;;;;;1.76;78.72;99098.56;4438904;32;34568;-70
2021/12/03 07:38:56;;;;;;;13.35;4.10;;;;;;;1.74;79.66;99108.84;4434583;32;34129;-70
2021/12/03 07:41:42;;;;;;;9.40;3.72;;;;;;;1.60;79.72;99112.31;4448853;32;35421;-70
2021/12/03 07:44:29;;;;;;;10.55;3.30;;;;;;;1.88;78.95;99128.06;4448643;32;35033;-71
2021/12/03 07:47:15;;;;;;;8.25;3.70;;;;;;;2.09;78.08;99120.81;4449609;32;34483;-70
2021/12/03 07:50:03;;;;;;;13.40;3.83;;;;;;;2.24;78.81;99128.94;4448300;32;33827;-70
2021/12/03 07:52:50;;;;;;;14.40;3.67;;;;;;;1.85;78.48;99134.00;4445871;32;33217;-72
2021/12/03 07:55:36;;;;;;;10.65;3.37;;;;;;;1.89;78.70;99128.88;4445907;32;36013;-71
2021/12/03 07:58:22;;;;;;;6.97;2.83;;;;;;;2.17;77.25;99150.00;4441546;32;34663;-72
2021/12/03 08:01:10;;;;;;;12.13;3.92;;;;;;;1.97;78.68;99164.28;4447128;32;34673;-70
2021/12/03 08:03:58;;;;;;;9.95;3.40;;;;;;;2.00;78.11;99168.34;4444652;32;34597;-71
2021/12/03 08:06:46;;;;;;;7.35;3.40;;;;;;;1.51;78.46;99185.72;4445412;32;34497;-71
2021/12/03 08:09:33;;;;;;;7.65;3.00;;;;;;;1.73;77.09;99182.03;4445878;32;34513;-70
2021/12/03 08:12:19;;;;;;;9.00;3.30;;;;;;;1.95;78.46;99198.06;4446793;32;33765;-71
2021/12/03 08:15:06;;;;;;;7.40;2.75;;;;;;;1.67;76.99;99197.41;4444550;32;35527;-71
2021/12/03 08:17:52;;;;;;;10.05;2.65;;;;;;;2.00;76.02;99209.69;4443367;32;36455;-70
2021/12/03 08:20:38;;;;;;;9.50;2.95;;;;;;;2.19;76.28;99212.75;4444160;32;35758;-71
2021/12/03 08:23:25;;;;;;;7.25;3.20;;;;;;;1.92;76.37;99218.31;4442032;32;34130;-70
2021/12/03 08:26:11;;;;;;;13.45;5.18;;;;;;;1.99;74.76;99226.16;4434179;32;35156;-70
2021/12/03 08:28:58;;;;;;;9.30;3.87;;;;;;;2.34;75.15;99221.97;4444594;32;34626;-74
2021/12/03 08:31:45;;;;;;;6.60;3.20;;;;;;;2.17;75.39;99227.59;4445684;32;34558;-72
2021/12/03 08:34:31;;;;;;;6.65;2.80;;;;;;;2.20;73.51;99227.88;4443678;32;32708;-71
2021/12/03 08:37:17;;;;;;;6.35;2.87;;;;;;;2.63;71.34;99236.59;4446406;32;33763;-72
2021/12/03 08:40:05;;;;;;;5.75;2.62;;;;;;;2.37;69.88;99237.66;4445787;32;37536;-73
2021/12/03 08:42:52;;;;;;;5.82;2.22;;;;;;;2.35;70.06;99239.81;4434082;32;34281;-73
2021/12/03 08:45:39;;;;;;;8.70;2.70;;;;;;;2.40;71.20;99247.94;4444963;32;33751;-73
2021/12/03 08:48:34;;;;;;;8.98;3.28;;;;;;;2.30;70.42;99251.41;4435874;32;34619;-71
2021/12/03 08:51:27;;;;;;;10.25;3.65;;;;;;;2.30;72.79;99266.81;4449096;32;34882;-72
2021/12/03 08:57:32;;;;;;;8.25;3.17;;;;;;;2.75;69.67;99281.53;4444025;32;33810;-74
2021/12/03 09:00:19;;;;;;;10.48;2.78;;;;;;;2.83;69.17;99287.22;4448790;32;34557;-71
2021/12/03 09:03:06;;;;;;;7.20;2.58;;;;;;;2.57;70.51;99286.38;4448546;32;35967;-71
2021/12/03 09:05:53;;;;;;;9.00;2.87;;;;;;;2.72;68.94;99298.31;4447173;32;34221;-72
2021/12/03 09:08:40;;;;;;;7.10;2.60;;;;;;;2.42;69.12;99302.53;4447893;32;34095;-72
2021/12/03 09:11:29;;;;;;;7.97;2.62;;;;;;;2.58;67.69;99304.22;4446686;32;35519;-71
2021/12/03 09:14:22;;;;;;;5.35;2.50;;;;;;;2.67;68.68;99315.31;4444712;32;34891;-77
2021/12/03 09:17:22;;;;;;;9.95;3.08;;;;;;;2.56;68.83;99319.09;4446228;32;34256;-70
2021/12/03 09:23:36;;;;;;;8.40;2.75;;;;;;;3.23;67.34;99331.66;4448006;32;34520;-72
2021/12/03 09:26:27;;;;;;;6.40;2.78;;;;;;;2.89;66.87;99342.97;4448867;32;35983;-71
2021/12/03 09:29:22;;;;;;;7.65;2.70;;;;;;;2.82;67.92;99333.50;4441159;32;35168;-70
2021/12/03 09:32:08;;;;;;;6.87;2.80;;;;;;;2.63;65.84;99335.88;4447483;32;33775;-71
2021/12/03 09:34:55;;;;;;;6.32;2.92;;;;;;;2.42;65.84;99338.53;4444885;32;34610;-71
2021/12/03 09:37:41;;;;;;;6.72;2.72;;;;;;;2.38;67.00;99331.19;4447847;32;33788;-71
2021/12/03 09:40:30;;;;;;;5.62;2.20;;;;;;;2.54;66.70;99329.38;4446926;32;34336;-73
2021/12/03 09:43:17;;;;;;;6.97;2.37;;;;;;;2.99;64.59;99320.56;4436391;32;34089;-72
2021/12/03 09:54:43;;;;;;;7.82;2.75;;;;;;;3.10;60.12;99326.75;4445126;32;34773;-73
2021/12/03 09:58:20;;;;;;;6.60;2.53;;;;;;;3.38;59.80;99334.34;4446273;32;34191;-81
2021/12/03 10:01:04;;;;;;;6.75;2.55;;;;;;;3.15;60.20;99322.16;4444718;32;34915;-76
2021/12/03 10:13:08;;;;;;;7.78;2.87;;;;;;;3.32;58.85;99357.09;4440509;32;35052;-84
2021/12/03 10:19:02;;;;;;;7.00;2.97;;;;;;;3.11;59.75;99361.69;4448448;32;35517;-77
2021/12/03 10:22:13;;;;;;;6.93;2.30;;;;;;;3.06;61.79;99353.56;4444465;32;34566;-80
2021/12/03 10:40:01;;;;;;;9.30;3.47;;;;;;;3.24;61.24;99365.75;4436370;32;34505;-76
2021/12/03 10:43:10;;;;;;;8.73;2.62;;;;;;;2.82;63.29;99374.91;4446875;32;33713;-75
2021/12/03 10:46:13;;;;;;;8.80;2.87;;;;;;;3.47;61.51;99367.16;4443772;32;35549;-76
2021/12/03 10:52:29;;;;;;;6.80;2.70;;;;;;;3.01;61.97;99372.50;4444582;32;35732;-76
2021/12/03 10:55:39;;;;;;;6.32;2.58;;;;;;;3.19;63.14;99365.78;4444399;32;34950;-76
2021/12/03 11:08:09;;;;;;;6.50;2.35;;;;;;;3.50;58.78;99384.75;4444679;32;32603;-76
2021/12/03 13:23:27;;;;;;;5.90;2.70;;;;;;;2.32;61.01;99489.06;4444111;32;33714;-74
2021/12/03 14:00:58;;;;;;;11.35;3.53;;;;;;;2.23;63.49;99532.00;4446357;32;33170;-76
2021/12/03 14:07:25;;;;;;;12.18;6.53;;;;;;;2.34;62.35;99524.78;4445723;32;34982;-79
2021/12/03 14:37:46;;;;;;;5.05;2.17;;;;;;;1.93;64.09;99590.09;4448135;32;33887;-76
2021/12/03 14:43:35;;;;;;;7.25;3.10;;;;;;;2.27;63.45;99581.75;4449150;32;34571;-76
2021/12/03 14:46:38;;;;;;;8.00;3.40;;;;;;;1.78;65.40;99596.16;4446655;32;34726;-76
2021/12/03 14:55:39;;;;;;;8.65;2.87;;;;;;;1.60;64.70;99591.13;4437745;32;35470;-76
2021/12/03 14:58:42;;;;;;;7.32;2.95;;;;;;;1.43;65.20;99601.19;4449562;32;34882;-77
2021/12/03 15:07:51;;;;;;;8.25;3.28;;;;;;;1.50;64.96;99609.91;4446207;32;34609;-75
2021/12/03 15:22:20;;;;;;;8.02;3.25;;;;;;;1.77;63.34;99628.84;4446495;32;34605;-78
2021/12/03 15:52:30;;;;;;;7.75;3.25;;;;;;;1.22;64.26;99643.28;4443270;32;34248;-76
2021/12/03 16:04:27;;;;;;;10.65;4.80;;;;;;;1.06;64.48;99671.94;4445666;32;34501;-75
2021/12/03 16:07:26;;;;;;;18.62;6.87;;;;;;;2.15;60.91;99687.34;4445428;32;36086;-75
2021/12/03 16:10:23;;;;;;;21.90;9.65;;;;;;;1.69;61.69;99681.44;4444781;32;35544;-76
2021/12/03 16:51:57;;;;;;;13.57;6.30;;;;;;;0.16;63.91;99716.81;4440129;32;34296;-76
2021/12/03 16:55:04;;;;;;;11.07;5.85;;;;;;;0.55;62.67;99725.06;4444838;32;35905;-76
2021/12/03 16:57:54;;;;;;;12.37;6.00;;;;;;;0.99;61.23;99725.25;4444257;32;34743;-76
2021/12/03 17:00:50;;;;;;;14.23;6.62;;;;;;;1.55;59.37;99732.28;4446389;32;34991;-76
2021/12/03 17:12:44;;;;;;;11.05;5.47;;;;;;;1.06;60.51;99728.63;4444225;32;35069;-77
2021/12/03 17:16:05;;;;;;;8.55;4.12;;;;;;;0.15;63.18;99725.97;4445524;32;34612;-77
2021/12/03 17:58:21;;;;;;;8.85;3.60;;;;;;;0.29;58.03;99745.38;4421532;32;36251;-75
2021/12/03 18:04:57;;;;;;;11.38;5.37;;;;;;;0.03;60.04;99752.09;4433191;32;34657;-75
2021/12/03 18:16:48;;;;;;;12.75;5.20;;;;;;;0.27;60.40;99750.97;4447228;32;35404;-75
2021/12/03 18:52:54;;;;;;;35.15;14.25;;;;;;;-0.64;64.31;99766.03;4448137;32;34532;-75
2021/12/03 18:55:45;;;;;;;32.72;13.05;;;;;;;-0.94;66.15;99762.41;4446359;32;34946;-77
2021/12/03 18:58:34;;;;;;;41.85;17.40;;;;;;;-0.67;65.52;99767.31;4444883;32;35591;-80
2021/12/03 19:01:25;;;;;;;29.65;12.98;;;;;;;-0.94;65.93;99775.00;4441061;32;34396;-78
2021/12/03 19:07:07;;;;;;;22.25;10.00;;;;;;;-0.93;66.39;99768.59;4444835;32;35659;-76
2021/12/03 19:09:58;;;;;;;16.23;7.68;;;;;;;-1.17;67.83;99756.97;4444803;32;35464;-76
2021/12/03 19:12:53;;;;;;;14.77;7.47;;;;;;;-1.02;67.24;99759.25;4446335;32;33726;-77
2021/12/03 19:15:41;;;;;;;13.88;6.95;;;;;;;-0.50;64.85;99757.47;4445929;32;34167;-76
2021/12/03 19:18:27;;;;;;;17.77;7.15;;;;;;;-0.68;66.12;99760.31;4446697;32;34587;-76
2021/12/03 19:21:22;;;;;;;16.33;7.10;;;;;;;-0.92;66.63;99759.47;4444808;32;111416;-77
2021/12/03 19:24:12;;;;;;;14.13;6.70;;;;;;;-0.60;66.28;99761.81;4424886;32;34115;-78
2021/12/03 19:27:02;;;;;;;12.05;5.47;;;;;;;-0.45;64.56;99762.19;4445584;32;34554;-77
2021/12/03 19:29:50;;;;;;;15.32;5.65;;;;;;;-0.66;65.64;99760.88;4447156;32;35031;-77
2021/12/03 19:32:37;;;;;;;12.93;5.40;;;;;;;-0.71;66.42;99760.78;4448349;32;35461;-77
2021/12/03 19:35:25;;;;;;;14.00;5.80;;;;;;;-0.05;65.25;99764.09;4445537;32;34968;-77
2021/12/03 19:38:14;;;;;;;14.32;5.82;;;;;;;-0.82;66.72;99775.88;4445413;32;34245;-76
2021/12/03 19:41:08;;;;;;;15.32;6.35;;;;;;;-1.09;67.98;99775.47;4447193;32;36550;-76
2021/12/03 19:43:58;;;;;;;17.77;6.43;;;;;;;-1.45;69.71;99776.41;4435582;32;34283;-77
2021/12/03 19:46:47;;;;;;;16.80;6.78;;;;;;;-0.75;67.42;99778.44;4437483;32;33886;-77
2021/12/03 19:52:38;;;;;;;20.02;6.90;;;;;;;-0.58;65.18;99768.59;4445487;32;34549;-78
2021/12/03 19:55:25;;;;;;;11.57;5.90;;;;;;;-0.05;64.40;99769.47;4443918;32;34418;-77
2021/12/03 19:58:14;;;;;;;16.60;6.97;;;;;;;-0.74;66.42;99772.84;4446155;32;34054;-77
2021/12/03 20:01:00;;;;;;;17.33;7.43;;;;;;;0.28;63.36;99776.84;4445449;32;34347;-77
2021/12/03 20:03:51;;;;;;;14.75;7.00;;;;;;;-0.72;66.34;99775.28;4448510;32;35019;-77
2021/12/03 20:06:43;;;;;;;13.15;6.87;;;;;;;-0.91;66.56;99778.09;4447373;32;34666;-77
2021/12/03 20:09:38;;;;;;;11.65;4.82;;;;;;;-0.92;67.79;99781.81;4446355;32;34712;-77
2021/12/03 20:12:25;;;;;;;12.25;5.10;;;;;;;-0.45;65.88;99786.41;4435355;32;35357;-77
2021/12/03 20:15:23;;;;;;;12.23;5.00;;;;;;;-0.53;65.99;99776.81;4444177;32;34915;-76
2021/12/03 20:18:21;;;;;;;11.32;4.57;;;;;;;-1.08;68.00;99787.87;4444999;32;35058;-76
2021/12/03 20:21:10;;;;;;;11.75;4.80;;;;;;;-1.14;68.26;99791.47;4446993;32;35205;-76
2021/12/03 20:27:10;;;;;;;12.10;4.82;;;;;;;-0.48;65.61;99773.41;4444757;32;35834;-77
2021/12/03 20:29:58;;;;;;;12.10;5.00;;;;;;;0.03;64.83;99776.34;4446389;32;35530;-77
2021/12/03 20:38:38;;;;;;;12.63;5.03;;;;;;;1.37;59.32;99783.88;4446464;32;34896;-76
2021/12/03 20:41:39;;;;;;;15.27;6.32;;;;;;;1.61;58.76;99784.50;4445804;32;34266;-76
2021/12/03 20:44:48;;;;;;;13.20;6.20;;;;;;;1.68;58.00;99781.59;4446159;32;34195;-77
2021/12/03 21:08:57;;;;;;;20.60;9.43;;;;;;;1.53;59.88;99795.72;4438127;32;35054;-77
2021/12/03 21:11:46;;;;;;;21.48;9.02;;;;;;;1.48;59.32;99803.75;4446962;32;34591;-78
2021/12/03 21:14:34;;;;;;;18.35;8.45;;;;;;;1.30;60.10;99794.84;4449497;32;35062;-78
2021/12/03 21:20:29;;;;;;;21.15;9.70;;;;;;;1.64;59.55;99792.09;4439720;32;35142;-77
2021/12/03 21:23:19;;;;;;;22.02;9.07;;;;;;;1.70;58.83;99785.69;4449511;32;34425;-78